Time;durP1;ratioP1;P1;durP2;ratioP2;P2;SDS_P1;SDS_P2;PMS_P1;PMS_P2;Temp;Humidity;BMP_temperature;BMP_pressure;BME280_temperature;BME280_humidity;BME280_pressure;Samples;Min_cycle;Max_cycle;Signal;HPM_P1;HPM_P2
2022/09/26 00:01:08;;;;;;;18.73;12.10;;;;;;;10.93;100.00;96237.97;5057296;28;20076;-73
2022/09/26 00:03:35;;;;;;;20.30;12.02;;;;;;;10.95;100.00;96232.88;5063212;28;20059;-71
2022/09/26 00:06:03;;;;;;;15.65;11.10;;;;;;;10.92;100.00;96232.84;5050347;28;20501;-66
2022/09/26 00:08:29;;;;;;;14.82;10.95;;;;;;;10.86;100.00;96233.22;5039412;28;20408;-69
2022/09/26 00:11:00;;;;;;;18.65;11.75;;;;;;;10.87;100.00;96231.25;5041159;28;20124;-67
2022/09/26 00:13:27;;;;;;;16.02;12.13;;;;;;;10.78;100.00;96228.03;5013390;28;20048;-68
2022/09/26 00:15:53;;;;;;;17.13;11.40;;;;;;;10.73;100.00;96229.16;5046182;28;20041;-66
2022/09/26 00:18:19;;;;;;;16.92;11.38;;;;;;;10.71;100.00;96231.50;5034341;28;20044;-70
2022/09/26 00:20:45;;;;;;;18.20;12.27;;;;;;;10.73;100.00;96226.44;5030220;28;20041;-65
2022/09/26 00:23:11;;;;;;;17.08;10.73;;;;;;;10.77;100.00;96230.00;5040530;28;20048;-68
2022/09/26 00:25:36;;;;;;;17.00;12.02;;;;;;;10.77;100.00;96218.25;5044010;28;20037;-67
2022/09/26 00:28:02;;;;;;;16.65;11.52;;;;;;;10.83;100.00;96233.97;5026385;28;20071;-76
2022/09/26 00:30:27;;;;;;;19.83;10.98;;;;;;;10.76;100.00;96225.69;5007036;28;20099;-67
2022/09/26 00:32:53;;;;;;;13.85;10.27;;;;;;;10.66;100.00;96221.69;5027154;28;20048;-67
2022/09/26 00:35:18;;;;;;;14.48;9.95;;;;;;;10.72;100.00;96222.13;5022155;28;20062;-66
2022/09/26 00:37:44;;;;;;;15.93;10.38;;;;;;;10.72;100.00;96216.66;5044898;28;20044;-65
2022/09/26 00:40:09;;;;;;;14.68;10.27;;;;;;;10.63;100.00;96216.19;5039302;28;20037;-69
2022/09/26 00:42:35;;;;;;;17.08;9.85;;;;;;;10.66;100.00;96216.22;5045786;28;20045;-69
2022/09/26 00:45:00;;;;;;;14.35;9.25;;;;;;;10.75;100.00;96213.16;5044356;28;20509;-67
2022/09/26 00:47:47;;;;;;;13.07;9.55;;;;;;;10.67;100.00;96214.25;5037593;28;20130;-69
2022/09/26 00:50:25;;;;;;;12.00;8.60;;;;;;;10.70;100.00;96213.50;5038269;28;20051;-68
2022/09/26 00:52:59;;;;;;;11.10;8.45;;;;;;;10.60;100.00;96209.50;5041729;28;20076;-67
2022/09/26 00:55:33;;;;;;;12.63;8.25;;;;;;;10.59;100.00;96207.94;5039683;28;20064;-66
2022/09/26 00:58:08;;;;;;;16.65;8.00;;;;;;;10.61;100.00;96210.31;5021795;28;20037;-65
2022/09/26 01:00:34;;;;;;;11.15;8.23;;;;;;;10.62;100.00;96206.41;5042835;28;20033;-65
2022/09/26 01:03:00;;;;;;;12.25;7.97;;;;;;;10.61;100.00;96202.88;5044754;28;20485;-67
2022/09/26 01:05:26;;;;;;;11.50;8.50;;;;;;;10.74;100.00;96197.88;5036789;28;20558;-70
2022/09/26 01:07:55;;;;;;;10.98;7.78;;;;;;;10.79;100.00;96196.75;5042491;28;20052;-70
2022/09/26 01:10:23;;;;;;;9.73;7.68;;;;;;;10.69;100.00;96199.00;5039376;28;20045;-70
2022/09/26 01:12:49;;;;;;;12.98;8.73;;;;;;;10.64;100.00;96193.09;5044984;28;20048;-69
2022/09/26 01:15:15;;;;;;;10.85;8.07;;;;;;;10.69;100.00;96188.06;5021183;28;20182;-71
2022/09/26 01:17:42;;;;;;;11.43;7.00;;;;;;;10.75;100.00;96184.97;5043030;28;20134;-69
2022/09/26 01:20:30;;;;;;;9.43;7.18;;;;;;;10.63;100.00;96183.34;5039552;28;20655;-72
2022/09/26 01:23:05;;;;;;;10.07;7.03;;;;;;;10.59;100.00;96190.72;5022884;28;20045;-70
2022/09/26 01:25:43;;;;;;;10.30;7.28;;;;;;;10.56;100.00;96195.00;5041491;28;20044;-71
2022/09/26 01:28:27;;;;;;;11.20;7.00;;;;;;;10.71;100.00;96190.41;5036054;28;20064;-68
2022/09/26 01:31:04;;;;;;;10.40;6.40;;;;;;;10.73;100.00;96184.56;5040124;28;20044;-69
2022/09/26 01:33:58;;;;;;;10.45;6.80;;;;;;;10.78;100.00;96176.78;5043676;28;20043;-66
2022/09/26 01:36:47;;;;;;;9.63;6.32;;;;;;;10.82;100.00;96174.06;5040622;28;20145;-69
2022/09/26 01:39:36;;;;;;;10.77;7.13;;;;;;;10.81;100.00;96175.25;5012383;28;20040;-70
2022/09/26 01:42:39;;;;;;;11.57;7.32;;;;;;;10.82;100.00;96171.31;5060968;28;20085;-68
2022/09/26 01:45:18;;;;;;;10.25;6.78;;;;;;;10.72;100.00;96170.09;4995135;28;20050;-71
2022/09/26 01:48:05;;;;;;;9.82;6.82;;;;;;;10.63;100.00;96170.41;5038700;28;20041;-71
2022/09/26 01:50:39;;;;;;;9.35;6.75;;;;;;;10.51;100.00;96168.78;5040432;28;20048;-66
2022/09/26 01:53:16;;;;;;;12.95;7.25;;;;;;;10.44;100.00;96167.91;5038720;28;20036;-71
2022/09/26 01:55:52;;;;;;;9.95;6.68;;;;;;;10.57;100.00;96166.47;5043038;28;20055;-68
2022/09/26 01:58:26;;;;;;;8.98;6.30;;;;;;;10.67;100.00;96154.00;5052249;28;20452;-68
2022/09/26 02:00:57;;;;;;;8.88;5.95;;;;;;;10.76;100.00;96153.69;5053969;28;20048;-67
2022/09/26 02:03:27;;;;;;;8.70;6.07;;;;;;;10.76;100.00;96162.69;5020651;28;20469;-68
2022/09/26 02:06:04;;;;;;;10.57;6.25;;;;;;;10.77;100.00;96156.06;5043279;28;20043;-68
2022/09/26 02:08:37;;;;;;;9.00;5.90;;;;;;;10.64;100.00;96160.25;5038911;28;20116;-67
2022/09/26 02:11:14;;;;;;;12.98;6.38;;;;;;;10.60;100.00;96157.47;5027508;28;20053;-70
2022/09/26 02:14:04;;;;;;;10.07;6.70;;;;;;;10.59;100.00;96155.91;5043097;28;20087;-67
2022/09/26 02:16:38;;;;;;;10.05;6.15;;;;;;;10.56;100.00;96156.66;5021971;28;20048;-68
2022/09/26 02:19:12;;;;;;;8.40;5.90;;;;;;;10.50;100.00;96150.75;5039995;28;20087;-68
2022/09/26 02:21:40;;;;;;;6.80;5.20;;;;;;;10.48;100.00;96163.28;5019801;28;20056;-67
2022/09/26 02:24:06;;;;;;;6.50;4.88;;;;;;;10.44;100.00;96155.03;5041309;28;20071;-66
2022/09/26 02:26:32;;;;;;;7.05;5.65;;;;;;;10.48;100.00;96157.78;5063723;28;20045;-67
2022/09/26 02:28:58;;;;;;;8.98;5.55;;;;;;;10.47;100.00;96151.50;5048646;28;20131;-67
2022/09/26 02:31:26;;;;;;;9.07;5.70;;;;;;;10.39;100.00;96155.38;5037313;28;20223;-67
2022/09/26 02:33:52;;;;;;;7.47;5.32;;;;;;;10.31;100.00;96149.03;5039679;28;20115;-67
2022/09/26 02:36:19;;;;;;;8.50;4.90;;;;;;;10.33;100.00;96143.19;5034583;28;20037;-69
2022/09/26 02:38:45;;;;;;;7.20;5.40;;;;;;;10.42;100.00;96137.41;5042222;28;20041;-68
2022/09/26 02:41:28;;;;;;;7.85;5.20;;;;;;;10.46;100.00;96136.28;5020360;28;20780;-68
2022/09/26 02:44:15;;;;;;;6.97;5.15;;;;;;;10.57;100.00;96144.56;5037755;28;20045;-67
2022/09/26 02:46:50;;;;;;;7.65;5.75;;;;;;;10.42;100.00;96140.13;5022919;28;20039;-68
2022/09/26 02:49:16;;;;;;;8.73;5.60;;;;;;;10.30;100.00;96139.25;5036579;28;20091;-69
2022/09/26 02:51:49;;;;;;;11.15;5.78;;;;;;;10.16;100.00;96141.84;5041921;28;20436;-68
2022/09/26 02:54:45;;;;;;;12.13;6.35;;;;;;;10.16;100.00;96130.91;5034650;28;20037;-68
2022/09/26 02:57:24;;;;;;;7.93;5.40;;;;;;;10.31;100.00;96137.31;5034873;28;20588;-67
2022/09/26 03:00:04;;;;;;;7.13;5.15;;;;;;;10.43;100.00;96136.25;5040342;28;20045;-70
2022/09/26 03:02:34;;;;;;;7.93;5.65;;;;;;;10.51;100.00;96133.19;5038332;28;20041;-67
2022/09/26 03:05:01;;;;;;;7.13;5.63;;;;;;;10.39;100.00;96133.47;5040172;28;20045;-67
2022/09/26 03:07:33;;;;;;;7.78;5.43;;;;;;;10.39;100.00;96130.75;5039997;28;20200;-68
2022/09/26 03:10:04;;;;;;;8.13;5.20;;;;;;;10.29;100.00;96132.19;5041969;28;20138;-65
2022/09/26 03:12:31;;;;;;;8.63;5.90;;;;;;;10.29;100.00;96126.72;5037935;28;20045;-66
2022/09/26 03:15:01;;;;;;;8.80;5.82;;;;;;;10.30;100.00;96128.28;5041537;28;20048;-66
2022/09/26 03:17:27;;;;;;;9.73;5.95;;;;;;;10.28;100.00;96125.16;5036343;28;20186;-67
2022/09/26 03:20:03;;;;;;;8.25;5.82;;;;;;;10.27;100.00;96140.00;5019998;28;20139;-69
2022/09/26 03:22:29;;;;;;;8.90;6.30;;;;;;;10.23;100.00;96133.72;5039452;28;20041;-69
2022/09/26 03:24:58;;;;;;;8.30;5.68;;;;;;;10.23;100.00;96135.66;5015883;28;20048;-69
2022/09/26 03:27:24;;;;;;;8.20;5.63;;;;;;;10.37;100.00;96124.06;5019501;28;20510;-68
2022/09/26 03:29:49;;;;;;;8.30;5.90;;;;;;;10.47;100.00;96126.09;5040388;28;20053;-69
2022/09/26 03:32:15;;;;;;;7.20;4.72;;;;;;;10.59;100.00;96133.22;5038765;28;20118;-69
2022/09/26 03:34:40;;;;;;;6.85;4.95;;;;;;;10.62;100.00;96116.03;5025068;28;20091;-68
2022/09/26 03:37:06;;;;;;;7.47;4.78;;;;;;;10.65;100.00;96118.00;5037833;28;20520;-69
2022/09/26 03:39:31;;;;;;;8.25;5.68;;;;;;;10.79;100.00;96111.84;5040472;28;20044;-68
2022/09/26 03:41:57;;;;;;;6.72;4.97;;;;;;;10.69;100.00;96110.59;5055020;28;20076;-68
2022/09/26 03:44:24;;;;;;;9.80;5.50;;;;;;;10.79;100.00;96106.38;5055681;28;20053;-68
2022/09/26 03:46:50;;;;;;;9.38;5.03;;;;;;;10.79;100.00;96107.16;5056925;28;20155;-69
2022/09/26 03:49:15;;;;;;;6.68;4.75;;;;;;;10.75;100.00;96103.59;5045728;28;20045;-68
2022/09/26 03:51:43;;;;;;;7.85;4.88;;;;;;;10.72;100.00;96107.09;5023256;28;20094;-68
2022/09/26 03:54:11;;;;;;;7.75;4.88;;;;;;;10.70;100.00;96102.00;5041252;28;20053;-69
2022/09/26 03:56:37;;;;;;;6.07;4.63;;;;;;;10.69;100.00;96096.91;5021875;28;20110;-69
2022/09/26 03:59:02;;;;;;;7.35;5.13;;;;;;;10.69;100.00;96094.16;5042018;28;20109;-68
2022/09/26 04:01:28;;;;;;;6.93;4.80;;;;;;;10.71;100.00;96100.03;5058412;28;20037;-68
2022/09/26 04:03:55;;;;;;;9.77;5.35;;;;;;;10.62;100.00;96092.16;5051308;28;20041;-69
2022/09/26 04:06:21;;;;;;;9.10;6.00;;;;;;;10.52;100.00;96084.69;5045046;28;20064;-68
2022/09/26 04:08:48;;;;;;;10.25;6.18;;;;;;;10.50;100.00;96087.00;5048497;28;20068;-68
2022/09/26 04:11:18;;;;;;;8.07;5.82;;;;;;;10.55;100.00;96074.91;5028345;28;20049;-67
2022/09/26 04:13:44;;;;;;;9.68;6.15;;;;;;;10.46;100.00;96073.31;5056512;28;20037;-71
2022/09/26 04:16:10;;;;;;;8.48;6.53;;;;;;;10.51;100.00;96080.34;5037298;28;20045;-67
2022/09/26 04:18:36;;;;;;;10.30;6.82;;;;;;;10.49;100.00;96072.53;5054217;28;20044;-67
2022/09/26 04:21:07;;;;;;;11.02;6.80;;;;;;;10.45;100.00;96063.50;5066955;28;20049;-68
2022/09/26 04:23:34;;;;;;;8.07;6.43;;;;;;;10.42;100.00;96072.47;5052013;28;20044;-68
2022/09/26 04:26:06;;;;;;;9.40;7.15;;;;;;;10.31;100.00;96066.91;5041488;28;20047;-67
2022/09/26 04:28:32;;;;;;;9.23;6.65;;;;;;;10.29;100.00;96062.97;5026983;28;20044;-66
2022/09/26 04:30:58;;;;;;;12.43;7.60;;;;;;;10.27;100.00;96062.56;5046364;28;20053;-69
2022/09/26 04:33:24;;;;;;;11.35;7.70;;;;;;;10.26;100.00;96061.00;5023431;28;20159;-66
2022/09/26 04:35:49;;;;;;;10.75;7.47;;;;;;;10.25;100.00;96060.22;5042824;28;20615;-66
2022/09/26 04:38:17;;;;;;;10.23;6.95;;;;;;;10.30;100.00;96053.63;5040069;28;20036;-68
2022/09/26 04:40:43;;;;;;;11.27;7.85;;;;;;;10.40;100.00;96049.41;5045711;28;20347;-67
2022/09/26 04:43:09;;;;;;;11.63;7.60;;;;;;;10.32;100.00;96046.59;5047864;28;20048;-69
2022/09/26 04:45:35;;;;;;;11.77;8.57;;;;;;;10.29;100.00;96044.59;5038049;28;20099;-67
2022/09/26 04:48:00;;;;;;;15.23;10.00;;;;;;;10.31;100.00;96031.34;5028532;28;20045;-67
2022/09/26 04:50:26;;;;;;;20.27;13.02;;;;;;;10.37;100.00;96040.00;5039775;28;20397;-68
2022/09/26 04:52:51;;;;;;;18.90;12.05;;;;;;;10.43;100.00;96038.47;5044301;28;20040;-68
2022/09/26 04:55:17;;;;;;;19.60;10.80;;;;;;;10.47;100.00;96042.00;5030214;28;20502;-68
2022/09/26 04:57:42;;;;;;;16.25;11.45;;;;;;;10.46;100.00;96028.69;5045138;28;20623;-68
2022/09/26 05:00:11;;;;;;;18.83;13.65;;;;;;;10.43;100.00;96027.50;5039135;28;20056;-69
2022/09/26 05:02:36;;;;;;;23.90;15.57;;;;;;;10.37;100.00;96033.72;5029952;28;20048;-68
2022/09/26 05:05:04;;;;;;;43.00;26.73;;;;;;;10.29;100.00;96030.13;5044730;28;20041;-70
2022/09/26 05:07:30;;;;;;;33.60;21.33;;;;;;;10.26;100.00;96022.66;5044134;28;20537;-70
2022/09/26 05:09:56;;;;;;;23.05;14.23;;;;;;;10.22;100.00;96019.13;5035848;28;20048;-69
2022/09/26 05:12:21;;;;;;;22.30;14.10;;;;;;;10.24;100.00;96019.53;5040992;28;20512;-68
2022/09/26 05:14:46;;;;;;;15.60;10.38;;;;;;;10.33;100.00;96022.75;5044906;28;20049;-68
2022/09/26 05:17:12;;;;;;;14.57;9.50;;;;;;;10.32;100.00;96016.50;5021687;28;20127;-70
2022/09/26 05:19:37;;;;;;;12.00;8.93;;;;;;;10.30;100.00;96024.28;5043363;28;20069;-71
2022/09/26 05:22:03;;;;;;;12.52;8.73;;;;;;;10.37;100.00;96020.84;5041310;28;20061;-67
2022/09/26 05:27:14;;;;;;;13.02;9.00;;;;;;;10.39;100.00;96023.16;5051677;28;20040;-69
2022/09/26 05:29:39;;;;;;;14.60;10.25;;;;;;;10.44;100.00;96014.59;5049360;28;20041;-69
2022/09/26 05:32:05;;;;;;;15.00;10.10;;;;;;;10.49;100.00;96017.75;5036666;28;20398;-63
2022/09/26 05:34:30;;;;;;;18.60;10.40;;;;;;;10.55;100.00;96020.91;5042810;28;20033;-67
2022/09/26 05:36:55;;;;;;;19.67;15.55;;;;;;;10.50;100.00;96013.88;5051090;28;20052;-69
2022/09/26 05:42:06;;;;;;;14.75;9.75;;;;;;;10.60;100.00;96015.09;5038923;28;20402;-69
2022/09/26 05:44:32;;;;;;;12.40;8.10;;;;;;;10.68;100.00;96008.47;5021186;28;20450;-69
2022/09/26 05:46:58;;;;;;;11.77;8.45;;;;;;;10.71;100.00;96010.47;5037858;28;20124;-71
2022/09/26 05:49:24;;;;;;;10.88;7.78;;;;;;;10.77;100.00;96010.88;5038997;28;20094;-71
2022/09/26 05:51:51;;;;;;;10.98;7.85;;;;;;;10.84;100.00;96013.66;5037250;28;20096;-70
2022/09/26 05:54:17;;;;;;;11.20;7.55;;;;;;;10.94;100.00;96011.34;5036463;28;20049;-71
2022/09/26 05:56:42;;;;;;;11.68;6.97;;;;;;;10.94;100.00;96019.56;5041777;28;20045;-71
2022/09/26 05:59:07;;;;;;;10.57;6.75;;;;;;;11.04;100.00;96016.06;5036426;28;20401;-69
2022/09/26 06:01:34;;;;;;;9.70;7.10;;;;;;;11.07;100.00;96018.03;5066087;28;20100;-67
2022/09/26 06:04:01;;;;;;;11.50;7.32;;;;;;;11.07;100.00;96013.34;5034623;28;20040;-68
2022/09/26 06:06:28;;;;;;;11.13;6.55;;;;;;;11.04;100.00;96021.56;5039921;28;20421;-67
2022/09/26 06:08:54;;;;;;;11.23;6.65;;;;;;;10.99;100.00;96025.44;5043415;28;20052;-67
2022/09/26 06:11:23;;;;;;;10.65;6.63;;;;;;;11.03;100.00;96023.50;5036966;28;20127;-67
2022/09/26 06:13:48;;;;;;;11.02;6.88;;;;;;;10.94;100.00;96017.59;5015848;28;20044;-67
2022/09/26 06:16:19;;;;;;;11.32;7.28;;;;;;;10.95;100.00;96021.91;5044483;28;20045;-69
2022/09/26 06:18:46;;;;;;;9.13;6.95;;;;;;;11.02;100.00;96018.38;5063819;28;20037;-69
2022/09/26 06:21:13;;;;;;;12.45;7.13;;;;;;;11.10;100.00;96014.50;5030958;28;20076;-68
2022/09/26 06:23:39;;;;;;;10.07;7.40;;;;;;;11.22;100.00;96011.44;5033413;28;20071;-68
2022/09/26 06:26:07;;;;;;;10.75;7.13;;;;;;;11.06;100.00;96009.03;5038589;28;20056;-69
2022/09/26 06:28:33;;;;;;;10.88;7.65;;;;;;;10.93;100.00;96009.75;5039723;28;20485;-70
2022/09/26 06:30:59;;;;;;;11.50;7.68;;;;;;;10.83;100.00;96000.31;5034511;28;20069;-70
2022/09/26 06:33:24;;;;;;;12.65;8.63;;;;;;;10.89;100.00;96007.81;5033175;28;20721;-66
2022/09/26 06:36:04;;;;;;;14.80;9.32;;;;;;;10.87;100.00;96014.81;5022069;28;20098;-67
2022/09/26 06:38:30;;;;;;;15.93;10.05;;;;;;;10.84;100.00;96016.38;5042574;28;20048;-67
2022/09/26 06:40:55;;;;;;;14.93;9.65;;;;;;;10.97;100.00;96003.13;5041550;28;20067;-68
2022/09/26 06:43:21;;;;;;;17.73;10.07;;;;;;;11.01;100.00;95997.66;5037992;28;20048;-67
2022/09/26 06:45:48;;;;;;;13.02;9.68;;;;;;;11.31;100.00;95996.53;5043035;28;20040;-68
2022/09/26 06:48:14;;;;;;;13.40;8.73;;;;;;;11.40;100.00;96003.25;5037033;28;20053;-67
2022/09/26 06:50:40;;;;;;;18.95;10.90;;;;;;;11.33;100.00;95999.72;5006753;28;20556;-67
2022/09/26 06:53:06;;;;;;;14.45;10.30;;;;;;;11.40;100.00;95999.72;5021045;28;20127;-66
2022/09/26 06:55:32;;;;;;;13.65;9.80;;;;;;;11.70;100.00;95998.56;5025709;28;20047;-66
2022/09/26 06:57:57;;;;;;;13.07;9.77;;;;;;;11.47;100.00;95997.00;5025482;28;20494;-70
2022/09/26 07:00:23;;;;;;;13.65;8.90;;;;;;;11.59;100.00;95993.06;5038165;28;20277;-72
2022/09/26 07:02:53;;;;;;;15.75;9.23;;;;;;;11.52;100.00;95993.84;5042490;28;20517;-69
2022/09/26 07:05:19;;;;;;;13.60;9.10;;;;;;;12.07;100.00;95983.72;5024034;28;20064;-68
2022/09/26 07:07:47;;;;;;;12.35;8.27;;;;;;;12.88;100.00;95983.91;5043498;28;20065;-68
2022/09/26 07:10:14;;;;;;;11.43;7.18;;;;;;;13.80;100.00;95986.53;5038954;28;20098;-68
2022/09/26 07:12:43;;;;;;;10.27;7.25;;;;;;;14.13;100.00;95991.38;5042119;28;20474;-69
2022/09/26 07:15:14;;;;;;;10.43;7.32;;;;;;;13.96;100.00;95993.06;5038115;28;20420;-69
2022/09/26 07:17:40;;;;;;;11.10;7.47;;;;;;;13.86;100.00;95990.41;5042042;28;20058;-68
2022/09/26 07:20:10;;;;;;;11.13;6.90;;;;;;;13.80;100.00;95995.56;5002654;28;20037;-69
2022/09/26 07:22:36;;;;;;;10.93;6.28;;;;;;;13.82;100.00;95998.69;5022002;28;20063;-73
2022/09/26 07:25:02;;;;;;;8.98;5.97;;;;;;;13.70;100.00;95999.16;5018662;28;20509;-66
2022/09/26 07:27:28;;;;;;;14.80;7.90;;;;;;;13.71;100.00;95998.00;5041865;28;20076;-70
2022/09/26 07:29:53;;;;;;;9.05;6.18;;;;;;;13.81;100.00;95993.59;5044703;28;20081;-67
2022/09/26 07:32:18;;;;;;;10.32;7.13;;;;;;;14.38;100.00;95997.81;5040834;28;20068;-67
2022/09/26 07:34:44;;;;;;;12.73;7.78;;;;;;;14.42;100.00;96004.06;5041671;28;20061;-67
2022/09/26 07:37:09;;;;;;;9.63;6.25;;;;;;;14.11;100.00;95996.47;5022341;28;20080;-66
2022/09/26 07:39:35;;;;;;;8.82;6.03;;;;;;;14.05;100.00;95992.59;5044501;28;20460;-68
2022/09/26 07:42:02;;;;;;;8.43;5.93;;;;;;;13.71;100.00;96000.75;5034921;28;20056;-67
2022/09/26 07:44:27;;;;;;;13.27;9.48;;;;;;;13.59;100.00;96004.75;5040549;28;20119;-68
2022/09/26 07:52:21;;;;;;;9.93;6.03;;;;;;;12.67;100.00;95998.50;5039677;28;20561;-68
2022/09/26 07:54:47;;;;;;;8.15;5.70;;;;;;;12.51;100.00;95996.94;5044988;28;20056;-69
2022/09/26 07:57:13;;;;;;;11.32;7.13;;;;;;;12.52;100.00;96003.25;5038878;28;20486;-68
2022/09/26 07:59:38;;;;;;;13.60;6.40;;;;;;;12.35;100.00;96002.91;5044025;28;20080;-67
2022/09/26 08:02:04;;;;;;;11.35;6.43;;;;;;;12.27;100.00;96001.31;5004533;28;20048;-67
2022/09/26 08:04:30;;;;;;;10.93;7.22;;;;;;;12.25;100.00;95998.19;5025484;28;21540;-69
2022/09/26 08:06:56;;;;;;;11.05;7.05;;;;;;;12.33;100.00;95996.22;5043425;28;20104;-69
2022/09/26 08:09:21;;;;;;;9.52;5.80;;;;;;;12.72;100.00;95992.59;5039641;28;20929;-69
2022/09/26 08:11:47;;;;;;;10.65;6.40;;;;;;;12.78;100.00;95994.53;5043823;28;20045;-69
2022/09/26 08:14:13;;;;;;;9.05;6.28;;;;;;;13.23;100.00;95995.91;5020738;28;20053;-68
2022/09/26 08:16:40;;;;;;;9.32;5.68;;;;;;;13.28;100.00;95996.25;5020638;28;20044;-69
2022/09/26 08:19:07;;;;;;;10.57;6.00;;;;;;;13.25;100.00;95991.56;5038758;28;20041;-69
2022/09/26 08:21:33;;;;;;;11.57;7.10;;;;;;;13.25;100.00;95993.53;5040231;28;20045;-71
2022/09/26 08:23:58;;;;;;;8.80;5.90;;;;;;;13.30;100.00;95998.59;5013508;28;20172;-67
2022/09/26 08:26:24;;;;;;;14.63;5.68;;;;;;;13.06;100.00;95994.81;5021006;28;20121;-68
2022/09/26 08:28:49;;;;;;;7.50;4.82;;;;;;;12.79;100.00;96001.59;5032037;28;20037;-67
2022/09/26 08:31:16;;;;;;;8.57;4.95;;;;;;;12.66;100.00;96000.47;5057966;28;20320;-70
2022/09/26 08:33:43;;;;;;;9.45;4.80;;;;;;;12.34;100.00;95995.03;5062110;28;20048;-70
2022/09/26 08:36:11;;;;;;;8.48;5.15;;;;;;;12.30;100.00;95995.06;5057619;28;20068;-66
2022/09/26 08:38:38;;;;;;;7.45;4.80;;;;;;;12.68;100.00;95994.56;5051481;28;20037;-67
2022/09/26 08:41:19;;;;;;;10.05;5.13;;;;;;;13.11;100.00;95997.94;5042928;28;20044;-68
2022/09/26 08:44:20;;;;;;;8.70;5.50;;;;;;;13.81;100.00;96004.59;5040433;28;20497;-68
2022/09/26 08:47:27;;;;;;;12.38;6.60;;;;;;;14.56;100.00;96001.16;5043132;28;20060;-67
2022/09/26 08:50:13;;;;;;;8.18;5.57;;;;;;;15.53;100.00;96004.75;5024296;28;20569;-67
2022/09/26 08:52:43;;;;;;;7.47;4.70;;;;;;;16.62;100.00;95991.56;5026409;28;20132;-67
2022/09/26 08:55:19;;;;;;;8.95;5.50;;;;;;;17.30;100.00;95992.97;5040013;28;20584;-72
2022/09/26 08:57:51;;;;;;;6.97;3.67;;;;;;;17.87;94.43;95996.47;5049351;28;20047;-69
2022/09/26 09:00:25;;;;;;;6.57;3.75;;;;;;;16.89;98.43;95997.00;5024148;28;20329;-71
2022/09/26 09:03:02;;;;;;;4.40;3.00;;;;;;;15.76;100.00;96002.06;5043345;28;20063;-70
2022/09/26 09:05:38;;;;;;;7.90;4.97;;;;;;;15.70;100.00;95998.19;5044709;28;20041;-66
2022/09/26 09:08:11;;;;;;;6.47;3.50;;;;;;;16.71;97.08;95996.50;5059845;28;20136;-66
2022/09/26 09:10:45;;;;;;;8.35;3.55;;;;;;;16.75;99.62;95991.72;5047668;28;20041;-69
2022/09/26 09:13:19;;;;;;;6.00;3.70;;;;;;;16.59;95.87;95981.34;5039523;28;20045;-69
2022/09/26 09:15:56;;;;;;;10.32;4.32;;;;;;;16.36;100.00;95993.97;5040990;28;20580;-69
2022/09/26 09:18:50;;;;;;;6.28;4.25;;;;;;;15.28;100.00;96000.34;5039562;28;20961;-71
2022/09/26 09:21:46;;;;;;;5.45;4.00;;;;;;;15.00;100.00;95991.25;5038627;28;20044;-67
2022/09/26 09:24:14;;;;;;;6.65;3.90;;;;;;;14.61;100.00;95991.72;5034812;28;20041;-66
2022/09/26 09:26:56;;;;;;;5.95;3.53;;;;;;;15.14;100.00;95990.28;5042867;28;20048;-68
2022/09/26 09:29:47;;;;;;;18.20;4.47;;;;;;;16.95;97.85;95995.28;5039825;28;20144;-67
2022/09/26 09:32:17;;;;;;;6.25;3.85;;;;;;;16.85;94.23;95993.50;5041734;28;20048;-69
2022/09/26 09:34:45;;;;;;;6.05;3.85;;;;;;;18.77;83.13;95996.22;5042315;28;20052;-69
2022/09/26 09:37:24;;;;;;;5.15;3.80;;;;;;;18.32;83.70;95986.69;5046885;28;20055;-67
2022/09/26 09:39:51;;;;;;;7.53;5.00;;;;;;;19.28;80.05;95985.28;5040268;28;20048;-67
2022/09/26 09:42:24;;;;;;;6.47;3.17;;;;;;;19.96;70.85;95985.22;5022217;28;20719;-67
2022/09/26 09:45:00;;;;;;;5.85;3.22;;;;;;;18.61;79.16;95977.63;5043977;28;20521;-66
2022/09/26 09:47:28;;;;;;;7.45;3.45;;;;;;;18.22;78.98;95963.59;5038462;28;20135;-67
2022/09/26 09:49:55;;;;;;;5.45;3.10;;;;;;;18.11;77.62;95974.94;5040428;28;20111;-67
2022/09/26 09:52:26;;;;;;;4.93;3.00;;;;;;;17.25;83.32;95970.56;5039770;28;20065;-69
2022/09/26 09:55:30;;;;;;;4.63;3.30;;;;;;;17.26;83.27;95966.59;5044259;28;20106;-68
2022/09/26 09:58:26;;;;;;;5.57;3.50;;;;;;;18.04;78.84;95955.72;5025890;28;20041;-68
2022/09/26 10:01:24;;;;;;;5.57;2.83;;;;;;;18.17;76.67;95958.56;5052838;28;20071;-71
2022/09/26 10:03:55;;;;;;;6.78;3.65;;;;;;;18.52;72.14;95958.84;5017147;28;20040;-71
2022/09/26 10:06:21;;;;;;;5.82;3.47;;;;;;;17.78;74.70;95943.66;5040156;28;20083;-70
2022/09/26 10:08:49;;;;;;;6.35;3.40;;;;;;;17.17;80.26;95942.28;5032019;28;20049;-69
2022/09/26 10:11:40;;;;;;;6.63;3.65;;;;;;;17.96;75.78;95943.25;5020819;28;20045;-69
2022/09/26 10:14:12;;;;;;;5.72;2.78;;;;;;;18.94;74.04;95942.25;5042501;28;20037;-67
2022/09/26 10:17:09;;;;;;;7.00;3.20;;;;;;;18.91;70.13;95945.91;5045046;28;20048;-71
2022/09/26 10:19:39;;;;;;;4.65;3.25;;;;;;;18.73;68.47;95946.38;5032840;28;20466;-71
2022/09/26 10:22:24;;;;;;;5.00;3.20;;;;;;;18.91;69.51;95941.13;5020835;28;20498;-70
2022/09/26 10:25:00;;;;;;;11.20;5.53;;;;;;;18.97;65.71;95940.59;5044346;28;20045;-69
2022/09/26 10:27:54;;;;;;;6.53;2.90;;;;;;;18.87;59.50;95936.88;5037431;28;20044;-68
2022/09/26 10:30:29;;;;;;;7.20;4.13;;;;;;;17.68;64.28;95928.84;5033070;28;20048;-66
2022/09/26 10:32:59;;;;;;;5.25;3.10;;;;;;;17.94;62.49;95931.81;5046416;28;20044;-67
2022/09/26 10:35:39;;;;;;;4.90;2.97;;;;;;;18.01;64.01;95926.09;5040205;28;20053;-67
2022/09/26 10:38:17;;;;;;;5.50;3.40;;;;;;;17.98;62.47;95926.97;5042155;28;20519;-67
2022/09/26 10:40:54;;;;;;;5.10;2.60;;;;;;;18.85;59.79;95931.81;5016502;28;20084;-70
2022/09/26 10:43:31;;;;;;;4.40;2.90;;;;;;;18.31;62.31;95927.69;5029157;28;20049;-64
2022/09/26 10:46:09;;;;;;;4.97;2.83;;;;;;;17.53;65.21;95922.84;5056433;28;20045;-64
2022/09/26 10:48:46;;;;;;;5.35;2.88;;;;;;;17.86;65.37;95920.16;5058525;28;20086;-63
2022/09/26 10:51:44;;;;;;;5.65;3.47;;;;;;;17.78;64.38;95913.19;5044820;28;20037;-65
2022/09/26 10:54:11;;;;;;;5.35;3.25;;;;;;;18.72;60.78;95920.63;5035619;28;20048;-62
2022/09/26 10:56:45;;;;;;;5.13;3.25;;;;;;;17.65;61.38;95920.63;5025260;28;20051;-64
2022/09/26 10:59:14;;;;;;;5.45;2.58;;;;;;;18.19;57.66;95908.25;5027049;28;20044;-64
2022/09/26 11:01:43;;;;;;;5.68;2.53;;;;;;;18.19;58.67;95909.00;5033549;28;20036;-62
2022/09/26 11:07:09;;;;;;;6.93;3.38;;;;;;;17.54;59.50;95912.59;5018424;28;20092;-63
2022/09/26 11:09:37;;;;;;;4.85;3.10;;;;;;;17.42;59.95;95904.97;5016411;28;20045;-63
2022/09/26 11:12:26;;;;;;;6.05;2.90;;;;;;;17.49;60.85;95888.19;5040633;28;20033;-63
2022/09/26 11:14:57;;;;;;;4.20;2.80;;;;;;;18.09;61.45;95879.59;5024110;28;20041;-64
2022/09/26 11:17:44;;;;;;;6.00;3.33;;;;;;;17.63;60.74;95878.72;5037275;28;20356;-64
2022/09/26 11:20:34;;;;;;;4.30;2.58;;;;;;;18.66;55.85;95882.78;5031435;28;20075;-66
2022/09/26 11:23:21;;;;;;;4.38;2.17;;;;;;;18.93;52.80;95870.56;5038108;28;20045;-66
2022/09/26 11:26:16;;;;;;;8.27;2.58;;;;;;;18.76;53.90;95865.03;5037852;28;20048;-65
2022/09/26 11:28:50;;;;;;;5.65;2.30;;;;;;;19.56;52.29;95866.22;5022563;28;20096;-68
2022/09/26 11:31:34;;;;;;;4.80;2.40;;;;;;;18.66;55.75;95855.06;5030045;28;20139;-66
2022/09/26 11:34:02;;;;;;;4.93;2.60;;;;;;;18.55;54.94;95869.22;5041767;28;20072;-66
2022/09/26 11:36:51;;;;;;;6.32;2.85;;;;;;;17.94;56.47;95854.25;5010171;28;20486;-67
2022/09/26 11:39:27;;;;;;;5.67;2.70;;;;;;;17.84;58.15;95850.50;5035862;28;20426;-66
2022/09/26 11:42:12;;;;;;;5.82;2.50;;;;;;;17.66;60.90;95852.94;5024230;28;20303;-66
2022/09/26 11:44:55;;;;;;;5.35;3.03;;;;;;;17.18;62.71;95847.00;5035629;28;20433;-66
2022/09/26 11:47:58;;;;;;;5.30;2.72;;;;;;;17.05;65.35;95843.34;5028659;28;20051;-68
2022/09/26 11:50:50;;;;;;;7.45;2.83;;;;;;;17.04;65.12;95845.31;5038898;28;20486;-67
2022/09/26 11:53:41;;;;;;;8.10;3.20;;;;;;;16.51;68.19;95842.50;5023189;28;20084;-66
2022/09/26 11:56:11;;;;;;;5.38;2.63;;;;;;;16.71;66.60;95838.91;5018845;28;20135;-65